sensor_id;sensor_type;location;lat;lon;timestamp;temperature;humidity
18131;DHT22;9191;54.324;10.126;2022-07-29T00:01:51;14.40;99.90
18131;DHT22;9191;54.324;10.126;2022-07-29T00:04:18;14.40;99.90
18131;DHT22;9191;54.324;10.126;2022-07-29T00:06:46;14.30;99.90
18131;DHT22;9191;54.324;10.126;2022-07-29T00:09:14;14.30;99.90
18131;DHT22;9191;54.324;10.126;2022-07-29T00:11:41;14.30;99.90
18131;DHT22;9191;54.324;10.126;2022-07-29T00:14:08;14.30;99.90
18131;DHT22;9191;54.324;10.126;2022-07-29T00:16:35;14.20;99.90
18131;DHT22;9191;54.324;10.126;2022-07-29T00:19:02;14.20;99.90
18131;DHT22;9191;54.324;10.126;2022-07-29T00:21:29;14.20;99.90
18131;DHT22;9191;54.324;10.126;2022-07-29T00:23:56;14.20;99.90
18131;DHT22;9191;54.324;10.126;2022-07-29T00:26:24;14.20;99.90
18131;DHT22;9191;54.324;10.126;2022-07-29T00:28:53;14.10;99.90
18131;DHT22;9191;54.324;10.126;2022-07-29T00:31:19;14.10;99.90
18131;DHT22;9191;54.324;10.126;2022-07-29T00:33:46;14.00;99.90
18131;DHT22;9191;54.324;10.126;2022-07-29T00:36:13;14.00;99.90
18131;DHT22;9191;54.324;10.126;2022-07-29T00:38:39;13.90;99.90
18131;DHT22;9191;54.324;10.126;2022-07-29T00:41:09;13.90;99.90
18131;DHT22;9191;54.324;10.126;2022-07-29T00:43:37;13.80;99.90
18131;DHT22;9191;54.324;10.126;2022-07-29T00:46:04;13.70;99.90
18131;DHT22;9191;54.324;10.126;2022-07-29T00:48:31;13.70;99.90
18131;DHT22;9191;54.324;10.126;2022-07-29T00:50:59;13.60;99.90
18131;DHT22;9191;54.324;10.126;2022-07-29T00:53:28;13.50;99.90
18131;DHT22;9191;54.324;10.126;2022-07-29T00:55:56;13.50;99.90
18131;DHT22;9191;54.324;10.126;2022-07-29T00:58:23;13.40;99.90
18131;DHT22;9191;54.324;10.126;2022-07-29T01:00:52;13.40;99.90
18131;DHT22;9191;54.324;10.126;2022-07-29T01:03:19;13.40;99.90
18131;DHT22;9191;54.324;10.126;2022-07-29T01:05:46;13.40;99.90
18131;DHT22;9191;54.324;10.126;2022-07-29T01:08:14;13.40;99.90
18131;DHT22;9191;54.324;10.126;2022-07-29T01:10:42;13.40;99.90
18131;DHT22;9191;54.324;10.126;2022-07-29T01:13:10;13.40;99.90
18131;DHT22;9191;54.324;10.126;2022-07-29T01:15:41;13.40;99.90
18131;DHT22;9191;54.324;10.126;2022-07-29T01:18:14;13.40;99.90
18131;DHT22;9191;54.324;10.126;2022-07-29T01:20:58;13.30;99.90
18131;DHT22;9191;54.324;10.126;2022-07-29T01:26:43;13.30;99.90
18131;DHT22;9191;54.324;10.126;2022-07-29T01:29:17;13.40;99.90
18131;DHT22;9191;54.324;10.126;2022-07-29T01:31:48;13.40;99.90
18131;DHT22;9191;54.324;10.126;2022-07-29T01:34:21;13.40;99.90
18131;DHT22;9191;54.324;10.126;2022-07-29T01:36:54;13.40;99.90
18131;DHT22;9191;54.324;10.126;2022-07-29T01:39:26;13.50;99.90
18131;DHT22;9191;54.324;10.126;2022-07-29T01:41:57;13.50;99.90
18131;DHT22;9191;54.324;10.126;2022-07-29T01:44:31;13.50;99.90
18131;DHT22;9191;54.324;10.126;2022-07-29T01:47:04;13.50;99.90
18131;DHT22;9191;54.324;10.126;2022-07-29T01:49:35;13.40;99.90
18131;DHT22;9191;54.324;10.126;2022-07-29T01:52:05;13.40;99.90
18131;DHT22;9191;54.324;10.126;2022-07-29T01:54:35;13.40;99.90
18131;DHT22;9191;54.324;10.126;2022-07-29T01:57:04;13.30;99.90
18131;DHT22;9191;54.324;10.126;2022-07-29T01:59:35;13.20;99.90
18131;DHT22;9191;54.324;10.126;2022-07-29T02:02:06;13.10;99.90
18131;DHT22;9191;54.324;10.126;2022-07-29T02:04:35;13.10;99.90
18131;DHT22;9191;54.324;10.126;2022-07-29T02:07:06;13.00;99.90
18131;DHT22;9191;54.324;10.126;2022-07-29T02:09:36;13.00;99.90
18131;DHT22;9191;54.324;10.126;2022-07-29T02:12:04;12.90;99.90
18131;DHT22;9191;54.324;10.126;2022-07-29T02:14:37;12.90;99.90
18131;DHT22;9191;54.324;10.126;2022-07-29T02:17:04;12.90;99.90
18131;DHT22;9191;54.324;10.126;2022-07-29T02:19:32;12.90;99.90
18131;DHT22;9191;54.324;10.126;2022-07-29T02:22:00;12.90;99.90
18131;DHT22;9191;54.324;10.126;2022-07-29T02:24:28;12.90;99.90
18131;DHT22;9191;54.324;10.126;2022-07-29T02:26:56;12.90;99.90
18131;DHT22;9191;54.324;10.126;2022-07-29T02:29:26;12.90;99.90
18131;DHT22;9191;54.324;10.126;2022-07-29T02:31:55;13.00;99.90
18131;DHT22;9191;54.324;10.126;2022-07-29T02:34:23;12.90;99.90
18131;DHT22;9191;54.324;10.126;2022-07-29T02:36:52;13.00;99.90
18131;DHT22;9191;54.324;10.126;2022-07-29T02:39:22;13.00;99.90
18131;DHT22;9191;54.324;10.126;2022-07-29T02:41:50;13.00;99.90
18131;DHT22;9191;54.324;10.126;2022-07-29T02:44:19;13.00;99.90
18131;DHT22;9191;54.324;10.126;2022-07-29T02:46:50;13.00;99.90
18131;DHT22;9191;54.324;10.126;2022-07-29T02:49:27;13.00;99.90
18131;DHT22;9191;54.324;10.126;2022-07-29T02:52:01;13.00;99.90
18131;DHT22;9191;54.324;10.126;2022-07-29T02:54:33;13.10;99.90
18131;DHT22;9191;54.324;10.126;2022-07-29T02:57:05;13.10;99.90
18131;DHT22;9191;54.324;10.126;2022-07-29T02:59:36;13.10;99.90
18131;DHT22;9191;54.324;10.126;2022-07-29T03:02:05;13.10;99.90
18131;DHT22;9191;54.324;10.126;2022-07-29T03:04:35;13.10;99.90
18131;DHT22;9191;54.324;10.126;2022-07-29T03:07:05;13.20;99.90
18131;DHT22;9191;54.324;10.126;2022-07-29T03:09:32;13.10;99.90
18131;DHT22;9191;54.324;10.126;2022-07-29T03:12:00;13.10;99.90
18131;DHT22;9191;54.324;10.126;2022-07-29T03:14:28;13.20;99.90
18131;DHT22;9191;54.324;10.126;2022-07-29T03:16:56;13.10;99.90
18131;DHT22;9191;54.324;10.126;2022-07-29T03:19:23;13.10;99.90
18131;DHT22;9191;54.324;10.126;2022-07-29T03:21:52;13.10;99.90
18131;DHT22;9191;54.324;10.126;2022-07-29T03:24:31;13.20;99.90
18131;DHT22;9191;54.324;10.126;2022-07-29T03:26:58;13.10;99.90
18131;DHT22;9191;54.324;10.126;2022-07-29T03:29:26;13.20;99.90
18131;DHT22;9191;54.324;10.126;2022-07-29T03:31:52;13.30;99.90
18131;DHT22;9191;54.324;10.126;2022-07-29T03:34:20;13.30;99.90
18131;DHT22;9191;54.324;10.126;2022-07-29T03:36:47;13.30;99.90
18131;DHT22;9191;54.324;10.126;2022-07-29T03:39:18;13.30;99.90
18131;DHT22;9191;54.324;10.126;2022-07-29T03:41:48;13.30;99.90
18131;DHT22;9191;54.324;10.126;2022-07-29T03:44:17;13.20;99.90
18131;DHT22;9191;54.324;10.126;2022-07-29T03:46:44;13.30;99.90
18131;DHT22;9191;54.324;10.126;2022-07-29T03:49:15;13.30;99.90
18131;DHT22;9191;54.324;10.126;2022-07-29T03:51:43;13.30;99.90
18131;DHT22;9191;54.324;10.126;2022-07-29T03:54:10;13.30;99.90
18131;DHT22;9191;54.324;10.126;2022-07-29T03:56:40;13.40;99.90
18131;DHT22;9191;54.324;10.126;2022-07-29T03:59:09;13.50;99.90
18131;DHT22;9191;54.324;10.126;2022-07-29T04:01:37;13.60;99.90
18131;DHT22;9191;54.324;10.126;2022-07-29T04:04:05;13.70;99.90
18131;DHT22;9191;54.324;10.126;2022-07-29T04:06:38;13.80;99.90
18131;DHT22;9191;54.324;10.126;2022-07-29T04:09:05;13.70;99.90
18131;DHT22;9191;54.324;10.126;2022-07-29T04:11:33;13.70;99.90
18131;DHT22;9191;54.324;10.126;2022-07-29T04:14:01;13.70;99.90
18131;DHT22;9191;54.324;10.126;2022-07-29T04:16:28;13.80;99.90
18131;DHT22;9191;54.324;10.126;2022-07-29T04:18:54;13.90;99.90
18131;DHT22;9191;54.324;10.126;2022-07-29T04:21:21;14.00;99.90
18131;DHT22;9191;54.324;10.126;2022-07-29T04:23:48;14.00;99.90
18131;DHT22;9191;54.324;10.126;2022-07-29T04:26:16;14.10;99.90
18131;DHT22;9191;54.324;10.126;2022-07-29T04:28:42;14.10;99.90
18131;DHT22;9191;54.324;10.126;2022-07-29T04:31:11;14.20;99.90
18131;DHT22;9191;54.324;10.126;2022-07-29T04:33:38;14.30;99.90
18131;DHT22;9191;54.324;10.126;2022-07-29T04:36:05;14.30;99.90
18131;DHT22;9191;54.324;10.126;2022-07-29T04:38:32;14.40;99.90
18131;DHT22;9191;54.324;10.126;2022-07-29T04:40:59;14.40;99.90
18131;DHT22;9191;54.324;10.126;2022-07-29T04:43:26;14.50;99.90
18131;DHT22;9191;54.324;10.126;2022-07-29T04:45:52;14.50;99.90
18131;DHT22;9191;54.324;10.126;2022-07-29T04:48:21;14.60;99.90
18131;DHT22;9191;54.324;10.126;2022-07-29T04:50:47;14.50;99.90
18131;DHT22;9191;54.324;10.126;2022-07-29T04:53:14;14.60;99.90
18131;DHT22;9191;54.324;10.126;2022-07-29T04:55:41;14.60;99.90
18131;DHT22;9191;54.324;10.126;2022-07-29T04:58:08;14.70;99.90
18131;DHT22;9191;54.324;10.126;2022-07-29T05:00:35;14.70;99.90
18131;DHT22;9191;54.324;10.126;2022-07-29T05:03:01;14.70;99.90
18131;DHT22;9191;54.324;10.126;2022-07-29T05:05:30;14.80;99.90
18131;DHT22;9191;54.324;10.126;2022-07-29T05:07:57;14.80;99.90
18131;DHT22;9191;54.324;10.126;2022-07-29T05:10:23;14.80;99.90
18131;DHT22;9191;54.324;10.126;2022-07-29T05:12:50;14.90;99.90
18131;DHT22;9191;54.324;10.126;2022-07-29T05:15:17;14.90;99.90
18131;DHT22;9191;54.324;10.126;2022-07-29T05:17:44;15.00;99.90
18131;DHT22;9191;54.324;10.126;2022-07-29T05:20:11;15.00;99.90
18131;DHT22;9191;54.324;10.126;2022-07-29T05:22:40;15.10;99.90
18131;DHT22;9191;54.324;10.126;2022-07-29T05:25:07;15.20;99.90
18131;DHT22;9191;54.324;10.126;2022-07-29T05:27:35;15.30;99.90
18131;DHT22;9191;54.324;10.126;2022-07-29T05:30:02;15.40;99.90
18131;DHT22;9191;54.324;10.126;2022-07-29T05:32:29;15.50;99.90
18131;DHT22;9191;54.324;10.126;2022-07-29T05:34:56;15.60;99.90
18131;DHT22;9191;54.324;10.126;2022-07-29T05:37:23;15.70;99.90
18131;DHT22;9191;54.324;10.126;2022-07-29T05:39:51;15.70;99.90
18131;DHT22;9191;54.324;10.126;2022-07-29T05:42:18;15.80;99.90
18131;DHT22;9191;54.324;10.126;2022-07-29T05:44:45;15.90;99.90
18131;DHT22;9191;54.324;10.126;2022-07-29T05:47:12;16.00;99.90
18131;DHT22;9191;54.324;10.126;2022-07-29T05:49:39;16.00;99.90
18131;DHT22;9191;54.324;10.126;2022-07-29T05:52:06;16.10;99.90
18131;DHT22;9191;54.324;10.126;2022-07-29T05:54:34;16.10;99.90
18131;DHT22;9191;54.324;10.126;2022-07-29T05:57:02;16.30;99.90
18131;DHT22;9191;54.324;10.126;2022-07-29T05:59:29;16.40;99.90
18131;DHT22;9191;54.324;10.126;2022-07-29T06:01:56;16.50;99.90
18131;DHT22;9191;54.324;10.126;2022-07-29T06:04:23;16.60;99.90
18131;DHT22;9191;54.324;10.126;2022-07-29T06:06:50;16.70;99.90
18131;DHT22;9191;54.324;10.126;2022-07-29T06:09:17;16.80;99.90
18131;DHT22;9191;54.324;10.126;2022-07-29T06:11:43;16.90;99.90
18131;DHT22;9191;54.324;10.126;2022-07-29T06:14:12;17.00;99.90
18131;DHT22;9191;54.324;10.126;2022-07-29T06:16:38;17.20;99.90
18131;DHT22;9191;54.324;10.126;2022-07-29T06:19:05;17.40;99.90
18131;DHT22;9191;54.324;10.126;2022-07-29T06:21:32;17.50;99.90
18131;DHT22;9191;54.324;10.126;2022-07-29T06:23:59;17.40;99.90
18131;DHT22;9191;54.324;10.126;2022-07-29T06:26:26;17.40;99.90
18131;DHT22;9191;54.324;10.126;2022-07-29T06:28:52;17.30;99.90
18131;DHT22;9191;54.324;10.126;2022-07-29T06:31:20;17.30;99.90
18131;DHT22;9191;54.324;10.126;2022-07-29T06:33:47;17.30;99.90
18131;DHT22;9191;54.324;10.126;2022-07-29T06:36:14;17.30;99.90
18131;DHT22;9191;54.324;10.126;2022-07-29T06:38:41;17.30;99.90
18131;DHT22;9191;54.324;10.126;2022-07-29T06:41:08;17.40;99.90
18131;DHT22;9191;54.324;10.126;2022-07-29T06:43:39;17.40;99.90
18131;DHT22;9191;54.324;10.126;2022-07-29T06:46:08;17.50;99.90
18131;DHT22;9191;54.324;10.126;2022-07-29T06:48:36;17.50;99.90
18131;DHT22;9191;54.324;10.126;2022-07-29T06:51:04;17.50;99.90
18131;DHT22;9191;54.324;10.126;2022-07-29T06:53:32;17.60;99.90
18131;DHT22;9191;54.324;10.126;2022-07-29T06:56:00;17.80;99.90
18131;DHT22;9191;54.324;10.126;2022-07-29T06:58:28;18.00;99.90
18131;DHT22;9191;54.324;10.126;2022-07-29T07:00:56;18.30;99.90
18131;DHT22;9191;54.324;10.126;2022-07-29T07:03:23;18.40;99.90
18131;DHT22;9191;54.324;10.126;2022-07-29T07:05:52;18.50;99.90
18131;DHT22;9191;54.324;10.126;2022-07-29T07:08:19;18.70;99.90
18131;DHT22;9191;54.324;10.126;2022-07-29T07:10:46;18.80;99.90
18131;DHT22;9191;54.324;10.126;2022-07-29T07:13:13;18.80;99.90
18131;DHT22;9191;54.324;10.126;2022-07-29T07:15:42;18.90;99.90
18131;DHT22;9191;54.324;10.126;2022-07-29T07:18:09;18.90;99.90
18131;DHT22;9191;54.324;10.126;2022-07-29T07:20:37;19.00;99.90
18131;DHT22;9191;54.324;10.126;2022-07-29T07:23:05;19.00;99.90
18131;DHT22;9191;54.324;10.126;2022-07-29T07:25:32;19.10;99.90
18131;DHT22;9191;54.324;10.126;2022-07-29T07:27:59;19.20;99.90
18131;DHT22;9191;54.324;10.126;2022-07-29T07:30:26;19.20;99.90
18131;DHT22;9191;54.324;10.126;2022-07-29T07:32:53;19.50;99.90
18131;DHT22;9191;54.324;10.126;2022-07-29T07:35:21;19.60;99.90
18131;DHT22;9191;54.324;10.126;2022-07-29T07:37:48;19.80;99.90
18131;DHT22;9191;54.324;10.126;2022-07-29T07:40:16;19.90;99.90
18131;DHT22;9191;54.324;10.126;2022-07-29T07:42:43;20.00;99.90
18131;DHT22;9191;54.324;10.126;2022-07-29T07:45:10;20.20;99.90
18131;DHT22;9191;54.324;10.126;2022-07-29T07:47:37;20.30;99.90
18131;DHT22;9191;54.324;10.126;2022-07-29T07:50:06;20.40;99.90
18131;DHT22;9191;54.324;10.126;2022-07-29T07:52:33;20.40;99.90
18131;DHT22;9191;54.324;10.126;2022-07-29T07:55:01;20.50;99.90
18131;DHT22;9191;54.324;10.126;2022-07-29T07:57:29;20.60;99.90
18131;DHT22;9191;54.324;10.126;2022-07-29T07:59:56;20.80;99.90
18131;DHT22;9191;54.324;10.126;2022-07-29T08:02:22;20.90;99.90
18131;DHT22;9191;54.324;10.126;2022-07-29T08:04:49;21.10;99.90
18131;DHT22;9191;54.324;10.126;2022-07-29T08:07:16;21.30;99.90
18131;DHT22;9191;54.324;10.126;2022-07-29T08:09:43;21.60;99.90
18131;DHT22;9191;54.324;10.126;2022-07-29T08:12:09;21.80;99.90
18131;DHT22;9191;54.324;10.126;2022-07-29T08:14:38;22.10;99.90
18131;DHT22;9191;54.324;10.126;2022-07-29T08:17:07;22.20;99.90
18131;DHT22;9191;54.324;10.126;2022-07-29T08:19:33;22.80;99.90
18131;DHT22;9191;54.324;10.126;2022-07-29T08:22:02;24.20;99.90
18131;DHT22;9191;54.324;10.126;2022-07-29T08:24:28;25.40;99.90
18131;DHT22;9191;54.324;10.126;2022-07-29T08:27:18;25.90;99.90
18131;DHT22;9191;54.324;10.126;2022-07-29T08:29:47;26.10;99.90
18131;DHT22;9191;54.324;10.126;2022-07-29T08:32:14;26.50;99.90
18131;DHT22;9191;54.324;10.126;2022-07-29T08:34:41;26.90;99.90
18131;DHT22;9191;54.324;10.126;2022-07-29T08:37:10;27.60;99.90
18131;DHT22;9191;54.324;10.126;2022-07-29T08:39:36;27.10;99.90
18131;DHT22;9191;54.324;10.126;2022-07-29T08:42:03;27.00;99.90
18131;DHT22;9191;54.324;10.126;2022-07-29T08:44:32;26.80;99.90
18131;DHT22;9191;54.324;10.126;2022-07-29T08:47:00;26.40;99.90
18131;DHT22;9191;54.324;10.126;2022-07-29T08:49:27;26.20;99.90
18131;DHT22;9191;54.324;10.126;2022-07-29T08:51:55;26.50;99.90
18131;DHT22;9191;54.324;10.126;2022-07-29T08:54:23;26.70;99.90
18131;DHT22;9191;54.324;10.126;2022-07-29T08:56:51;26.20;99.90
18131;DHT22;9191;54.324;10.126;2022-07-29T08:59:20;25.90;99.90
18131;DHT22;9191;54.324;10.126;2022-07-29T09:01:48;25.90;99.90
18131;DHT22;9191;54.324;10.126;2022-07-29T09:04:17;26.70;99.90
18131;DHT22;9191;54.324;10.126;2022-07-29T09:06:47;27.20;99.90
18131;DHT22;9191;54.324;10.126;2022-07-29T09:09:15;27.30;99.90
18131;DHT22;9191;54.324;10.126;2022-07-29T09:11:43;27.40;99.90
18131;DHT22;9191;54.324;10.126;2022-07-29T09:14:11;27.40;99.90
18131;DHT22;9191;54.324;10.126;2022-07-29T09:16:47;27.40;99.90
18131;DHT22;9191;54.324;10.126;2022-07-29T09:19:29;28.10;99.90
18131;DHT22;9191;54.324;10.126;2022-07-29T09:21:58;28.20;99.90
18131;DHT22;9191;54.324;10.126;2022-07-29T09:24:25;28.30;99.90
18131;DHT22;9191;54.324;10.126;2022-07-29T09:26:52;29.10;99.90
18131;DHT22;9191;54.324;10.126;2022-07-29T09:29:22;28.90;99.90
18131;DHT22;9191;54.324;10.126;2022-07-29T09:31:50;28.20;99.90
18131;DHT22;9191;54.324;10.126;2022-07-29T09:34:24;27.80;99.90
18131;DHT22;9191;54.324;10.126;2022-07-29T09:36:53;27.20;99.90
18131;DHT22;9191;54.324;10.126;2022-07-29T09:39:28;26.80;99.90
18131;DHT22;9191;54.324;10.126;2022-07-29T09:41:56;26.60;99.90
18131;DHT22;9191;54.324;10.126;2022-07-29T09:44:24;26.50;99.90
18131;DHT22;9191;54.324;10.126;2022-07-29T09:46:59;26.50;99.90
18131;DHT22;9191;54.324;10.126;2022-07-29T09:49:31;26.90;99.90
18131;DHT22;9191;54.324;10.126;2022-07-29T09:52:04;26.60;99.90
18131;DHT22;9191;54.324;10.126;2022-07-29T09:54:32;26.60;99.90
18131;DHT22;9191;54.324;10.126;2022-07-29T09:57:03;26.50;99.90
18131;DHT22;9191;54.324;10.126;2022-07-29T09:59:31;26.30;99.90
18131;DHT22;9191;54.324;10.126;2022-07-29T10:01:58;26.20;99.90
18131;DHT22;9191;54.324;10.126;2022-07-29T10:04:37;25.90;99.90
18131;DHT22;9191;54.324;10.126;2022-07-29T10:07:05;25.70;99.90
18131;DHT22;9191;54.324;10.126;2022-07-29T10:09:33;25.50;99.90
18131;DHT22;9191;54.324;10.126;2022-07-29T10:12:10;25.50;99.90
18131;DHT22;9191;54.324;10.126;2022-07-29T10:14:39;25.70;99.90
18131;DHT22;9191;54.324;10.126;2022-07-29T10:17:07;25.70;99.90
18131;DHT22;9191;54.324;10.126;2022-07-29T10:19:35;25.70;99.90
18131;DHT22;9191;54.324;10.126;2022-07-29T10:22:06;25.60;99.90
18131;DHT22;9191;54.324;10.126;2022-07-29T10:24:33;25.70;99.90
18131;DHT22;9191;54.324;10.126;2022-07-29T10:27:02;25.90;99.90
18131;DHT22;9191;54.324;10.126;2022-07-29T10:29:31;25.90;99.90
18131;DHT22;9191;54.324;10.126;2022-07-29T10:32:13;25.90;99.90
18131;DHT22;9191;54.324;10.126;2022-07-29T10:37:57;26.70;99.90
18131;DHT22;9191;54.324;10.126;2022-07-29T10:40:36;27.40;99.90
18131;DHT22;9191;54.324;10.126;2022-07-29T10:43:28;27.80;99.90
18131;DHT22;9191;54.324;10.126;2022-07-29T10:45:57;27.20;99.90
18131;DHT22;9191;54.324;10.126;2022-07-29T10:48:24;27.30;99.90
18131;DHT22;9191;54.324;10.126;2022-07-29T10:50:55;28.00;99.90
18131;DHT22;9191;54.324;10.126;2022-07-29T10:53:24;28.30;99.90
18131;DHT22;9191;54.324;10.126;2022-07-29T10:55:52;28.40;99.90
18131;DHT22;9191;54.324;10.126;2022-07-29T10:58:20;28.60;99.90
18131;DHT22;9191;54.324;10.126;2022-07-29T11:00:49;28.50;99.90
18131;DHT22;9191;54.324;10.126;2022-07-29T11:03:46;29.00;99.90
18131;DHT22;9191;54.324;10.126;2022-07-29T11:06:14;29.30;99.90
18131;DHT22;9191;54.324;10.126;2022-07-29T11:08:42;29.40;99.90
18131;DHT22;9191;54.324;10.126;2022-07-29T11:11:36;29.40;99.90
18131;DHT22;9191;54.324;10.126;2022-07-29T11:14:06;28.80;99.90
18131;DHT22;9191;54.324;10.126;2022-07-29T11:17:03;28.80;99.90
18131;DHT22;9191;54.324;10.126;2022-07-29T11:19:30;29.00;99.90
18131;DHT22;9191;54.324;10.126;2022-07-29T11:21:57;29.30;99.90
18131;DHT22;9191;54.324;10.126;2022-07-29T11:24:27;29.70;99.90
18131;DHT22;9191;54.324;10.126;2022-07-29T11:27:11;28.50;99.90
18131;DHT22;9191;54.324;10.126;2022-07-29T11:29:47;27.60;99.90
18131;DHT22;9191;54.324;10.126;2022-07-29T11:32:16;27.30;99.90
18131;DHT22;9191;54.324;10.126;2022-07-29T11:34:46;26.80;99.90
18131;DHT22;9191;54.324;10.126;2022-07-29T11:37:23;26.50;99.90
18131;DHT22;9191;54.324;10.126;2022-07-29T11:40:15;26.20;99.90
18131;DHT22;9191;54.324;10.126;2022-07-29T11:42:51;26.40;99.90
18131;DHT22;9191;54.324;10.126;2022-07-29T11:45:26;26.60;99.90
18131;DHT22;9191;54.324;10.126;2022-07-29T11:47:59;26.70;99.90
18131;DHT22;9191;54.324;10.126;2022-07-29T11:50:31;27.10;99.90
18131;DHT22;9191;54.324;10.126;2022-07-29T11:53:00;27.30;99.90
18131;DHT22;9191;54.324;10.126;2022-07-29T11:55:28;27.10;99.90
18131;DHT22;9191;54.324;10.126;2022-07-29T11:57:57;27.20;99.90
18131;DHT22;9191;54.324;10.126;2022-07-29T12:00:30;27.20;99.90
18131;DHT22;9191;54.324;10.126;2022-07-29T12:03:05;27.10;99.90
18131;DHT22;9191;54.324;10.126;2022-07-29T12:05:38;27.70;99.90
18131;DHT22;9191;54.324;10.126;2022-07-29T12:08:13;28.20;99.90
18131;DHT22;9191;54.324;10.126;2022-07-29T12:10:44;28.00;99.90
18131;DHT22;9191;54.324;10.126;2022-07-29T12:13:12;27.30;99.90
18131;DHT22;9191;54.324;10.126;2022-07-29T12:15:39;27.50;99.90
18131;DHT22;9191;54.324;10.126;2022-07-29T12:18:14;27.60;99.90
18131;DHT22;9191;54.324;10.126;2022-07-29T12:20:42;27.50;99.90
18131;DHT22;9191;54.324;10.126;2022-07-29T12:23:10;27.60;99.90
18131;DHT22;9191;54.324;10.126;2022-07-29T12:25:39;28.10;99.90
18131;DHT22;9191;54.324;10.126;2022-07-29T12:28:08;28.20;99.90
18131;DHT22;9191;54.324;10.126;2022-07-29T12:30:42;28.50;99.90
18131;DHT22;9191;54.324;10.126;2022-07-29T12:33:18;28.80;99.90
18131;DHT22;9191;54.324;10.126;2022-07-29T12:35:47;28.70;99.90
18131;DHT22;9191;54.324;10.126;2022-07-29T12:38:15;28.10;99.90
18131;DHT22;9191;54.324;10.126;2022-07-29T12:40:43;27.50;99.90
18131;DHT22;9191;54.324;10.126;2022-07-29T12:43:13;27.10;99.90
18131;DHT22;9191;54.324;10.126;2022-07-29T12:45:43;26.90;99.90
18131;DHT22;9191;54.324;10.126;2022-07-29T12:48:10;26.60;99.90
18131;DHT22;9191;54.324;10.126;2022-07-29T12:50:52;26.10;99.90
18131;DHT22;9191;54.324;10.126;2022-07-29T12:53:19;26.00;99.90
18131;DHT22;9191;54.324;10.126;2022-07-29T12:55:47;25.60;99.90
18131;DHT22;9191;54.324;10.126;2022-07-29T12:58:28;25.40;99.90
18131;DHT22;9191;54.324;10.126;2022-07-29T13:01:03;25.20;99.90
18131;DHT22;9191;54.324;10.126;2022-07-29T13:03:45;25.30;99.90
18131;DHT22;9191;54.324;10.126;2022-07-29T13:06:34;25.80;99.90
18131;DHT22;9191;54.324;10.126;2022-07-29T13:09:03;26.40;99.90
18131;DHT22;9191;54.324;10.126;2022-07-29T13:11:31;27.30;99.90
18131;DHT22;9191;54.324;10.126;2022-07-29T13:14:00;27.60;99.90
18131;DHT22;9191;54.324;10.126;2022-07-29T13:16:27;27.90;99.90
18131;DHT22;9191;54.324;10.126;2022-07-29T13:19:11;28.20;99.90
18131;DHT22;9191;54.324;10.126;2022-07-29T13:21:39;28.30;99.90
18131;DHT22;9191;54.324;10.126;2022-07-29T13:24:07;27.90;99.90
18131;DHT22;9191;54.324;10.126;2022-07-29T13:26:34;27.40;99.90
18131;DHT22;9191;54.324;10.126;2022-07-29T13:29:03;27.20;99.90
18131;DHT22;9191;54.324;10.126;2022-07-29T13:31:30;26.40;99.90
18131;DHT22;9191;54.324;10.126;2022-07-29T13:33:57;25.80;99.90
18131;DHT22;9191;54.324;10.126;2022-07-29T13:36:24;25.70;99.90
18131;DHT22;9191;54.324;10.126;2022-07-29T13:38:52;25.60;99.90
18131;DHT22;9191;54.324;10.126;2022-07-29T13:41:19;25.50;99.90
18131;DHT22;9191;54.324;10.126;2022-07-29T13:43:45;25.10;99.90
18131;DHT22;9191;54.324;10.126;2022-07-29T13:46:14;24.90;99.90
18131;DHT22;9191;54.324;10.126;2022-07-29T13:48:41;24.70;99.90
18131;DHT22;9191;54.324;10.126;2022-07-29T13:51:08;24.50;99.90
18131;DHT22;9191;54.324;10.126;2022-07-29T13:53:35;24.30;99.90
18131;DHT22;9191;54.324;10.126;2022-07-29T13:56:02;24.10;99.90
18131;DHT22;9191;54.324;10.126;2022-07-29T13:58:31;24.10;99.90
18131;DHT22;9191;54.324;10.126;2022-07-29T14:00:58;24.20;99.90
18131;DHT22;9191;54.324;10.126;2022-07-29T14:03:26;24.30;99.90
18131;DHT22;9191;54.324;10.126;2022-07-29T14:05:53;24.60;99.90
18131;DHT22;9191;54.324;10.126;2022-07-29T14:08:21;24.70;99.90
18131;DHT22;9191;54.324;10.126;2022-07-29T14:10:48;24.80;99.90
18131;DHT22;9191;54.324;10.126;2022-07-29T14:13:15;24.80;99.90
18131;DHT22;9191;54.324;10.126;2022-07-29T14:15:42;24.90;99.90
18131;DHT22;9191;54.324;10.126;2022-07-29T14:18:08;25.10;99.90
18131;DHT22;9191;54.324;10.126;2022-07-29T14:20:37;25.00;99.90
18131;DHT22;9191;54.324;10.126;2022-07-29T14:23:03;25.10;99.90
18131;DHT22;9191;54.324;10.126;2022-07-29T14:25:30;24.90;99.90
18131;DHT22;9191;54.324;10.126;2022-07-29T14:27:57;25.00;99.90
18131;DHT22;9191;54.324;10.126;2022-07-29T14:30:24;24.90;99.90
18131;DHT22;9191;54.324;10.126;2022-07-29T14:32:51;24.70;99.90
18131;DHT22;9191;54.324;10.126;2022-07-29T14:35:17;24.70;99.90
18131;DHT22;9191;54.324;10.126;2022-07-29T14:37:46;24.80;99.90
18131;DHT22;9191;54.324;10.126;2022-07-29T14:40:12;24.90;99.90
18131;DHT22;9191;54.324;10.126;2022-07-29T14:42:39;24.80;99.90
18131;DHT22;9191;54.324;10.126;2022-07-29T14:45:08;24.60;99.90
18131;DHT22;9191;54.324;10.126;2022-07-29T14:47:35;24.70;99.90
18131;DHT22;9191;54.324;10.126;2022-07-29T14:50:03;24.50;99.90
18131;DHT22;9191;54.324;10.126;2022-07-29T14:52:30;24.50;99.90
18131;DHT22;9191;54.324;10.126;2022-07-29T14:54:59;24.60;99.90
18131;DHT22;9191;54.324;10.126;2022-07-29T14:57:25;24.70;99.90
18131;DHT22;9191;54.324;10.126;2022-07-29T14:59:52;24.60;99.90
18131;DHT22;9191;54.324;10.126;2022-07-29T15:02:19;24.80;99.90
18131;DHT22;9191;54.324;10.126;2022-07-29T15:04:46;24.80;99.90
18131;DHT22;9191;54.324;10.126;2022-07-29T15:07:13;24.60;99.90
18131;DHT22;9191;54.324;10.126;2022-07-29T15:09:41;24.60;99.90
18131;DHT22;9191;54.324;10.126;2022-07-29T15:12:09;24.80;99.90
18131;DHT22;9191;54.324;10.126;2022-07-29T15:14:37;24.60;99.90
18131;DHT22;9191;54.324;10.126;2022-07-29T15:17:03;24.40;99.90
18131;DHT22;9191;54.324;10.126;2022-07-29T15:19:30;24.50;99.90
18131;DHT22;9191;54.324;10.126;2022-07-29T15:21:58;24.50;99.90
18131;DHT22;9191;54.324;10.126;2022-07-29T15:24:25;24.20;99.90
18131;DHT22;9191;54.324;10.126;2022-07-29T15:26:52;24.20;99.90
18131;DHT22;9191;54.324;10.126;2022-07-29T15:29:20;24.00;99.90
18131;DHT22;9191;54.324;10.126;2022-07-29T15:31:47;24.00;99.90
18131;DHT22;9191;54.324;10.126;2022-07-29T15:34:14;24.00;99.90
18131;DHT22;9191;54.324;10.126;2022-07-29T15:36:41;24.00;99.90
18131;DHT22;9191;54.324;10.126;2022-07-29T15:39:08;24.00;99.90
18131;DHT22;9191;54.324;10.126;2022-07-29T15:41:35;23.80;99.90
18131;DHT22;9191;54.324;10.126;2022-07-29T15:44:02;23.70;99.90
18131;DHT22;9191;54.324;10.126;2022-07-29T15:46:30;23.60;99.90
18131;DHT22;9191;54.324;10.126;2022-07-29T15:49:14;23.60;99.90